Time;durP1;ratioP1;P1;durP2;ratioP2;P2;SDS_P1;SDS_P2;PMS_P1;PMS_P2;Temp;Humidity;BMP_temperature;BMP_pressure;BME280_temperature;BME280_humidity;BME280_pressure;Samples;Min_cycle;Max_cycle;Signal;HPM_P1;HPM_P2
2022/08/16 00:02:06;;;;;;;18.67;9.93;;;23.20;99.90;;;;;;4995608;28;20197;-91
2022/08/16 00:04:32;;;;;;;12.73;10.00;;;23.30;99.90;;;;;;4995550;28;20260;-92
2022/08/16 00:06:58;;;;;;;11.93;10.82;;;23.40;99.90;;;;;;4995419;28;20276;-82
2022/08/16 00:09:23;;;;;;;12.50;9.93;;;23.30;99.90;;;;;;4994852;28;20173;-80
2022/08/16 00:11:50;;;;;;;26.45;10.57;;;23.40;99.90;;;;;;4995011;28;20197;-79
2022/08/16 00:14:20;;;;;;;12.82;9.88;;;23.30;99.90;;;;;;4994753;28;20173;-82
2022/08/16 00:16:47;;;;;;;14.30;9.93;;;23.30;99.90;;;;;;4994890;28;20173;-82
2022/08/16 00:19:19;;;;;;;12.80;9.02;;;23.40;99.90;;;;;;4994559;28;20240;-80
2022/08/16 00:21:46;;;;;;;20.33;10.35;;;23.40;99.90;;;;;;4994175;28;20280;-80
2022/08/16 00:24:15;;;;;;;15.48;9.43;;;23.40;99.90;;;;;;4993364;28;20191;-80
2022/08/16 00:26:41;;;;;;;11.90;9.73;;;23.30;99.90;;;;;;4994540;28;20164;-80
2022/08/16 00:29:07;;;;;;;11.13;9.73;;;23.20;99.90;;;;;;4994511;28;20173;-80
2022/08/16 00:31:33;;;;;;;13.05;9.15;;;23.30;99.90;;;;;;4994724;28;20200;-80
2022/08/16 00:33:59;;;;;;;13.88;9.23;;;23.30;99.90;;;;;;4994236;28;20232;-82
2022/08/16 00:36:24;;;;;;;14.07;9.30;;;23.30;99.90;;;;;;4994790;28;20169;-90
2022/08/16 00:38:50;;;;;;;12.98;9.27;;;23.30;99.90;;;;;;4994544;28;20515;-80
2022/08/16 00:41:16;;;;;;;12.00;9.77;;;23.30;99.90;;;;;;4994365;28;20192;-80
2022/08/16 00:43:41;;;;;;;9.82;9.02;;;23.40;99.90;;;;;;4993069;28;20249;-80
2022/08/16 00:46:33;;;;;;;18.35;10.63;;;23.30;99.90;;;;;;4994126;28;20571;-80
2022/08/16 00:48:59;;;;;;;11.60;10.45;;;23.20;99.90;;;;;;4993751;28;20176;-79
2022/08/16 00:51:25;;;;;;;18.48;10.05;;;23.30;99.90;;;;;;4993673;28;20185;-79
2022/08/16 00:53:53;;;;;;;10.57;9.63;;;23.20;99.90;;;;;;4993670;28;20213;-80
2022/08/16 00:56:22;;;;;;;10.85;9.75;;;22.90;99.90;;;;;;4993766;28;20211;-80
2022/08/16 00:58:49;;;;;;;22.42;10.25;;;22.80;99.90;;;;;;4993967;28;20188;-79
2022/08/16 01:01:17;;;;;;;10.55;9.68;;;22.80;99.90;;;;;;4993594;28;20604;-79
2022/08/16 01:03:47;;;;;;;13.73;9.75;;;22.90;99.90;;;;;;4994177;28;20180;-80
2022/08/16 01:06:14;;;;;;;12.65;9.20;;;22.90;99.90;;;;;;5001132;28;20162;-80
2022/08/16 01:08:41;;;;;;;22.45;9.60;;;22.90;99.90;;;;;;5018650;23;20321;-80
2022/08/16 01:11:07;;;;;;;15.27;9.25;;;22.90;99.90;;;;;;5020839;28;20538;-80
2022/08/16 01:13:35;;;;;;;20.42;9.88;;;22.80;99.90;;;;;;5013099;28;20295;-80
2022/08/16 01:16:14;;;;;;;16.08;8.55;;;22.80;99.90;;;;;;5013272;28;20173;-80
2022/08/16 01:18:57;;;;;;;11.88;9.32;;;22.80;99.90;;;;;;5012317;28;20218;-80
2022/08/16 01:21:50;;;;;;;11.77;10.10;;;23.10;99.90;;;;;;5015032;28;20552;-86
2022/08/16 01:24:38;;;;;;;15.90;8.93;;;23.10;99.90;;;;;;5014903;28;20173;-80
2022/08/16 01:27:34;;;;;;;13.30;9.93;;;23.10;99.90;;;;;;5014354;28;20657;-90
2022/08/16 01:30:13;;;;;;;15.65;8.93;;;22.90;99.90;;;;;;5012934;28;20177;-80
2022/08/16 01:32:42;;;;;;;10.25;9.35;;;22.90;99.90;;;;;;5015398;28;20204;-84
2022/08/16 01:35:21;;;;;;;12.60;9.60;;;22.80;99.90;;;;;;5013846;28;20176;-80
2022/08/16 01:37:55;;;;;;;12.15;9.52;;;22.70;99.90;;;;;;5013031;28;20179;-80
2022/08/16 01:40:25;;;;;;;14.77;9.57;;;22.60;99.90;;;;;;5012657;28;20281;-79
2022/08/16 01:42:52;;;;;;;11.75;9.70;;;22.50;99.90;;;;;;5011526;28;20187;-79
2022/08/16 01:45:18;;;;;;;16.73;10.60;;;22.40;99.90;;;;;;5012482;28;20164;-78
2022/08/16 01:47:46;;;;;;;11.75;9.60;;;22.60;99.90;;;;;;5011617;28;20174;-79
2022/08/16 01:50:12;;;;;;;11.30;8.13;;;22.60;99.90;;;;;;5016960;28;20193;-79
2022/08/16 01:52:38;;;;;;;10.88;8.95;;;22.60;99.90;;;;;;5023938;28;20210;-82
2022/08/16 01:55:06;;;;;;;13.90;9.13;;;22.50;99.90;;;;;;5037475;28;20160;-80
2022/08/16 01:57:32;;;;;;;12.23;8.45;;;22.60;99.90;;;;;;5022405;28;20196;-85
2022/08/16 01:59:58;;;;;;;14.77;9.18;;;22.40;99.90;;;;;;5013489;28;20165;-80
2022/08/16 02:02:24;;;;;;;10.88;8.27;;;22.40;99.90;;;;;;5012987;28;20156;-81
2022/08/16 02:04:50;;;;;;;9.43;7.50;;;22.40;99.90;;;;;;5012204;28;20540;-80
2022/08/16 02:07:17;;;;;;;8.95;8.15;;;22.30;99.90;;;;;;5014001;28;20168;-81
2022/08/16 02:09:44;;;;;;;13.02;8.40;;;22.40;99.90;;;;;;5012129;28;20192;-80
2022/08/16 02:12:11;;;;;;;10.63;9.63;;;22.20;99.90;;;;;;5011644;28;20201;-79
2022/08/16 02:14:37;;;;;;;15.95;10.55;;;22.10;99.90;;;;;;5012993;28;20260;-80
2022/08/16 02:17:06;;;;;;;9.07;8.38;;;22.10;99.90;;;;;;5011371;28;20188;-80
2022/08/16 02:19:35;;;;;;;14.93;8.63;;;22.00;99.90;;;;;;5011320;28;20186;-80
2022/08/16 02:22:03;;;;;;;18.88;8.23;;;22.00;99.90;;;;;;5010962;28;20215;-80
2022/08/16 02:24:28;;;;;;;11.18;8.02;;;22.10;99.90;;;;;;5011276;28;20171;-80
2022/08/16 02:26:55;;;;;;;19.88;8.00;;;22.00;99.90;;;;;;5011119;28;20501;-80
2022/08/16 02:29:21;;;;;;;17.10;8.27;;;22.00;99.90;;;;;;5011008;28;20160;-79
2022/08/16 02:31:49;;;;;;;14.30;8.75;;;22.00;99.90;;;;;;5013562;28;20195;-80
2022/08/16 02:34:16;;;;;;;9.23;8.32;;;21.90;99.90;;;;;;5014762;28;20180;-80
2022/08/16 02:36:42;;;;;;;9.38;8.68;;;21.80;99.90;;;;;;5015035;28;20173;-80
2022/08/16 02:39:10;;;;;;;18.33;9.95;;;21.80;99.90;;;;;;5016757;28;20660;-80
2022/08/16 02:41:38;;;;;;;17.63;9.55;;;21.80;99.90;;;;;;5015487;28;20200;-88
2022/08/16 02:44:04;;;;;;;11.23;8.65;;;21.90;99.90;;;;;;5015544;28;20233;-80
2022/08/16 02:46:31;;;;;;;14.68;9.95;;;21.90;99.90;;;;;;5015225;28;20168;-80
2022/08/16 02:48:57;;;;;;;10.07;8.75;;;21.90;99.90;;;;;;5015082;28;20256;-88
2022/08/16 02:51:23;;;;;;;15.18;9.15;;;21.80;99.90;;;;;;5015948;28;20188;-91
2022/08/16 02:53:49;;;;;;;11.05;9.40;;;21.80;99.90;;;;;;5016157;28;20204;-80
2022/08/16 02:56:17;;;;;;;11.65;8.40;;;22.00;99.90;;;;;;5014287;28;20985;-79
2022/08/16 02:58:45;;;;;;;10.43;9.40;;;21.90;99.90;;;;;;5014485;28;20168;-80
2022/08/16 03:01:12;;;;;;;11.32;7.90;;;21.90;99.90;;;;;;5015859;28;20494;-81
2022/08/16 03:03:37;;;;;;;8.75;8.00;;;21.80;99.90;;;;;;5014651;28;20171;-82
2022/08/16 03:06:03;;;;;;;9.98;8.45;;;21.70;99.90;;;;;;5015281;28;20169;-82
2022/08/16 03:08:29;;;;;;;9.82;9.02;;;21.70;99.90;;;;;;5015426;28;20168;-80
2022/08/16 03:10:54;;;;;;;9.98;8.32;;;21.70;99.90;;;;;;5015515;28;20679;-82
2022/08/16 03:13:22;;;;;;;10.25;9.20;;;21.70;99.90;;;;;;5015693;28;20208;-80
2022/08/16 03:15:47;;;;;;;9.93;8.90;;;21.80;99.90;;;;;;5015660;28;20210;-79
2022/08/16 03:18:13;;;;;;;12.15;8.90;;;21.80;99.90;;;;;;5015792;28;20599;-80
2022/08/16 03:20:40;;;;;;;11.38;9.60;;;21.80;99.90;;;;;;5015314;28;20703;-80
2022/08/16 03:23:07;;;;;;;9.27;8.38;;;21.80;99.90;;;;;;5014158;28;20230;-80
2022/08/16 03:25:34;;;;;;;14.93;9.35;;;21.80;99.90;;;;;;5014358;28;20164;-80
2022/08/16 03:28:00;;;;;;;13.95;9.90;;;21.70;99.90;;;;;;5015428;28;20173;-80
2022/08/16 03:30:29;;;;;;;9.18;8.38;;;21.70;99.90;;;;;;5013871;28;20184;-79
2022/08/16 03:32:55;;;;;;;10.60;9.65;;;21.50;99.90;;;;;;5014980;28;21059;-80
2022/08/16 03:35:25;;;;;;;14.35;8.90;;;21.60;99.90;;;;;;5015321;28;20248;-80
2022/08/16 03:37:59;;;;;;;10.18;8.98;;;21.60;99.90;;;;;;5015153;28;20160;-79
2022/08/16 03:40:26;;;;;;;14.60;9.60;;;21.60;99.90;;;;;;5013417;28;20188;-79
2022/08/16 03:42:52;;;;;;;10.95;9.95;;;21.50;99.90;;;;;;5012940;28;20728;-79
2022/08/16 03:45:18;;;;;;;11.55;10.18;;;21.50;99.90;;;;;;5014760;28;20247;-80
2022/08/16 03:47:46;;;;;;;10.70;9.60;;;21.40;99.90;;;;;;5013709;28;20160;-79
2022/08/16 03:50:13;;;;;;;10.48;9.38;;;21.20;99.90;;;;;;5013398;28;20263;-80
2022/08/16 03:52:39;;;;;;;21.40;11.35;;;21.10;99.90;;;;;;5014722;28;20201;-79
2022/08/16 03:55:06;;;;;;;16.10;10.02;;;21.10;99.90;;;;;;5013364;28;20193;-79
2022/08/16 03:57:31;;;;;;;16.50;10.75;;;21.10;99.90;;;;;;5014619;28;20238;-79
2022/08/16 03:59:57;;;;;;;13.48;11.48;;;21.20;99.90;;;;;;5014619;28;20625;-79
2022/08/16 04:02:23;;;;;;;15.57;10.43;;;21.20;99.90;;;;;;5013617;28;20230;-81
2022/08/16 04:04:49;;;;;;;15.52;11.65;;;21.10;99.90;;;;;;5013540;28;20180;-79
2022/08/16 04:07:15;;;;;;;19.98;11.68;;;21.10;99.90;;;;;;5013154;28;20268;-79
2022/08/16 04:09:41;;;;;;;22.73;11.75;;;21.10;99.90;;;;;;5013667;28;20282;-79
2022/08/16 04:12:09;;;;;;;32.03;11.30;;;21.10;99.90;;;;;;5014594;28;20184;-80
2022/08/16 04:14:35;;;;;;;20.20;11.18;;;21.10;99.90;;;;;;5015722;28;20499;-80
2022/08/16 04:17:02;;;;;;;23.92;12.00;;;21.20;99.90;;;;;;5021580;28;20156;-82
2022/08/16 04:19:28;;;;;;;34.00;11.85;;;21.10;99.90;;;;;;5038819;28;20181;-79
2022/08/16 04:21:54;;;;;;;18.42;11.48;;;20.90;99.90;;;;;;5016909;28;20196;-79
2022/08/16 04:24:20;;;;;;;33.05;10.43;;;21.00;99.90;;;;;;5012673;28;20179;-79
2022/08/16 04:26:45;;;;;;;14.98;11.02;;;20.90;99.90;;;;;;5012812;28;20187;-78
2022/08/16 04:29:11;;;;;;;12.38;11.20;;;21.00;99.90;;;;;;5014442;28;20169;-79
2022/08/16 04:31:37;;;;;;;15.27;11.35;;;21.00;99.90;;;;;;5012507;28;20227;-79
2022/08/16 04:34:02;;;;;;;11.73;10.63;;;21.20;99.90;;;;;;5012915;28;20216;-80
2022/08/16 04:36:28;;;;;;;12.43;11.13;;;21.20;99.90;;;;;;5013995;28;20161;-79
2022/08/16 04:38:54;;;;;;;17.67;11.07;;;21.20;99.90;;;;;;5013914;28;20165;-79
2022/08/16 04:41:21;;;;;;;12.10;10.93;;;21.20;99.90;;;;;;4996056;28;20189;-79
2022/08/16 04:43:47;;;;;;;12.02;10.63;;;21.30;99.90;;;;;;5012569;28;20172;-79
2022/08/16 04:46:14;;;;;;;14.70;11.27;;;21.40;99.90;;;;;;5013906;28;20188;-81
2022/08/16 04:48:40;;;;;;;12.13;10.73;;;21.30;99.90;;;;;;5010249;28;20203;-81
2022/08/16 04:51:07;;;;;;;16.15;10.32;;;21.30;99.90;;;;;;4993215;28;20197;-80
2022/08/16 04:53:32;;;;;;;17.63;10.57;;;21.30;99.90;;;;;;4992816;28;20205;-81
2022/08/16 04:55:59;;;;;;;11.55;10.68;;;21.40;99.90;;;;;;4994301;28;20165;-81
2022/08/16 04:58:25;;;;;;;16.05;9.95;;;21.40;99.90;;;;;;4994313;28;20176;-81
2022/08/16 05:00:50;;;;;;;17.38;9.82;;;21.40;99.90;;;;;;4993919;28;20185;-82
2022/08/16 05:03:16;;;;;;;24.33;10.30;;;21.50;99.90;;;;;;4994081;28;20174;-81
2022/08/16 05:05:42;;;;;;;86.13;12.50;;;21.50;99.90;;;;;;4992912;28;20183;-81
2022/08/16 05:08:08;;;;;;;45.53;11.07;;;21.40;99.90;;;;;;4992886;28;20535;-81
2022/08/16 05:10:35;;;;;;;29.00;11.27;;;21.40;99.90;;;;;;4993589;28;20193;-84
2022/08/16 05:13:04;;;;;;;17.42;10.93;;;21.50;99.90;;;;;;4992879;28;20205;-84
2022/08/16 05:15:29;;;;;;;15.40;10.75;;;21.60;99.90;;;;;;4992879;28;20200;-86
2022/08/16 05:17:55;;;;;;;16.92;10.68;;;21.50;99.90;;;;;;4993160;28;20181;-82
2022/08/16 05:20:21;;;;;;;10.70;9.57;;;21.30;99.90;;;;;;4992521;28;20193;-82
2022/08/16 05:22:48;;;;;;;10.45;9.15;;;21.30;99.90;;;;;;4992468;28;20173;-81
2022/08/16 05:25:15;;;;;;;13.32;10.18;;;21.40;99.90;;;;;;4992296;28;20173;-80
2022/08/16 05:27:43;;;;;;;13.52;10.05;;;21.40;99.90;;;;;;4992409;28;20170;-83
2022/08/16 05:30:14;;;;;;;15.23;9.60;;;21.20;99.90;;;;;;4992462;28;20173;-83
2022/08/16 05:32:41;;;;;;;16.70;10.15;;;21.20;99.90;;;;;;4993825;28;20680;-82
2022/08/16 05:35:09;;;;;;;16.30;10.13;;;21.30;99.90;;;;;;4992503;28;20180;-83
2022/08/16 05:37:36;;;;;;;11.43;9.70;;;21.40;99.90;;;;;;4992185;28;20206;-82
2022/08/16 05:40:04;;;;;;;12.38;10.07;;;21.50;99.90;;;;;;4993333;28;20180;-83
2022/08/16 05:42:30;;;;;;;15.32;10.50;;;21.50;99.90;;;;;;4991865;28;20169;-82
2022/08/16 05:44:55;;;;;;;15.75;10.32;;;21.70;99.90;;;;;;4992406;28;20228;-82
2022/08/16 05:47:21;;;;;;;19.73;10.82;;;21.60;99.90;;;;;;4991399;28;20565;-82
2022/08/16 05:49:46;;;;;;;14.88;10.43;;;21.80;99.90;;;;;;4991643;28;20173;-82
2022/08/16 05:52:13;;;;;;;17.23;9.75;;;22.00;99.90;;;;;;4992661;28;20189;-82
2022/08/16 05:54:41;;;;;;;16.33;10.13;;;21.90;99.90;;;;;;4992107;28;20232;-82
2022/08/16 05:57:07;;;;;;;10.20;8.85;;;22.00;99.90;;;;;;4991884;28;20162;-83
2022/08/16 05:59:34;;;;;;;12.10;10.02;;;22.20;99.90;;;;;;4998570;28;20173;-82
2022/08/16 06:02:05;;;;;;;12.88;9.93;;;22.30;99.90;;;;;;4985833;28;20658;-82
2022/08/16 06:04:52;;;;;;;15.50;10.18;;;22.30;99.90;;;;;;4998119;28;20607;-82
2022/08/16 06:07:20;;;;;;;13.38;9.90;;;22.30;99.90;;;;;;4995844;28;20170;-83
2022/08/16 06:09:46;;;;;;;16.52;9.38;;;22.30;99.90;;;;;;4998145;28;20205;-83
2022/08/16 06:12:13;;;;;;;11.65;10.50;;;22.60;99.90;;;;;;4999329;28;20240;-82
2022/08/16 06:14:41;;;;;;;13.30;9.32;;;22.90;99.90;;;;;;5004691;28;20173;-81
2022/08/16 06:17:07;;;;;;;25.73;10.02;;;23.10;99.90;;;;;;4998536;28;20177;-81
2022/08/16 06:19:33;;;;;;;17.55;10.30;;;23.30;99.90;;;;;;4998452;28;20219;-81
2022/08/16 06:21:59;;;;;;;16.48;9.38;;;23.30;99.90;;;;;;5000143;28;20216;-80
2022/08/16 06:24:25;;;;;;;23.00;10.00;;;23.60;99.90;;;;;;4985664;28;20193;-83
2022/08/16 06:26:50;;;;;;;16.58;8.82;;;23.70;99.90;;;;;;5007352;28;20200;-83
2022/08/16 06:29:16;;;;;;;12.90;9.40;;;23.90;99.90;;;;;;5001154;28;20179;-81
2022/08/16 06:31:41;;;;;;;10.00;9.00;;;24.00;99.90;;;;;;5001722;28;20323;-81
2022/08/16 06:34:07;;;;;;;10.40;8.45;;;23.90;99.90;;;;;;5002384;28;20268;-81
2022/08/16 06:36:32;;;;;;;14.15;9.43;;;23.70;99.90;;;;;;4998888;28;20174;-81
2022/08/16 06:38:58;;;;;;;20.33;9.13;;;23.70;99.90;;;;;;4996564;28;20212;-81
2022/08/16 06:41:24;;;;;;;27.40;9.82;;;23.60;99.90;;;;;;4998886;28;20208;-82
2022/08/16 06:43:50;;;;;;;14.35;9.63;;;23.50;99.90;;;;;;4999954;28;20177;-81
2022/08/16 06:46:38;;;;;;;16.58;9.70;;;23.50;99.90;;;;;;5006479;28;20213;-81
2022/08/16 06:49:06;;;;;;;12.18;10.00;;;23.40;99.90;;;;;;5014362;28;20175;-82
2022/08/16 06:51:35;;;;;;;12.43;8.18;;;23.50;99.90;;;;;;4992322;28;20276;-80
2022/08/16 06:54:02;;;;;;;11.15;9.27;;;23.80;99.90;;;;;;4996278;28;20231;-82
2022/08/16 06:56:27;;;;;;;11.70;8.63;;;23.90;99.90;;;;;;4995926;28;20644;-81
2022/08/16 06:58:54;;;;;;;24.20;8.57;;;23.90;99.90;;;;;;4995369;28;20244;-80
2022/08/16 07:01:20;;;;;;;9.68;8.77;;;23.80;99.90;;;;;;4991659;28;20228;-81
2022/08/16 07:03:47;;;;;;;10.82;8.43;;;23.80;99.90;;;;;;4991473;28;20172;-81
2022/08/16 07:06:12;;;;;;;10.60;7.47;;;23.90;99.90;;;;;;4992668;28;20251;-80
2022/08/16 07:08:41;;;;;;;8.65;7.85;;;23.90;99.90;;;;;;4993464;28;20173;-80
2022/08/16 07:11:07;;;;;;;9.75;6.10;;;24.00;99.90;;;;;;4993588;28;20185;-79
2022/08/16 07:13:33;;;;;;;10.80;7.40;;;24.40;99.90;;;;;;4993803;28;20267;-80
2022/08/16 07:15:59;;;;;;;7.88;6.50;;;24.50;99.90;;;;;;4995598;28;20233;-80
2022/08/16 07:18:25;;;;;;;7.35;6.72;;;24.60;99.90;;;;;;4994671;28;20177;-80
2022/08/16 07:20:52;;;;;;;19.88;6.85;;;24.50;99.90;;;;;;4996188;28;20188;-79
2022/08/16 07:23:19;;;;;;;13.70;6.07;;;24.80;99.90;;;;;;5002469;28;20188;-81
2022/08/16 07:25:45;;;;;;;8.68;5.53;;;24.90;99.90;;;;;;5015209;28;20172;-84
2022/08/16 07:28:26;;;;;;;14.95;6.07;;;25.20;99.90;;;;;;4997667;28;20181;-84
2022/08/16 07:30:52;;;;;;;11.13;5.75;;;25.20;99.90;;;;;;4985086;28;20193;-83
2022/08/16 07:33:18;;;;;;;17.08;5.93;;;25.50;99.90;;;;;;4995559;28;20220;-84
2022/08/16 07:35:44;;;;;;;13.07;6.47;;;25.70;99.90;;;;;;4996616;28;20522;-84
2022/08/16 07:38:10;;;;;;;7.97;5.30;;;25.70;99.90;;;;;;4996361;28;20180;-91
2022/08/16 07:40:36;;;;;;;10.90;6.13;;;25.60;99.90;;;;;;4997421;28;20185;-93
2022/08/16 07:43:03;;;;;;;10.02;5.43;;;25.50;99.90;;;;;;4998306;28;20185;-89
2022/08/16 07:45:29;;;;;;;10.57;5.72;;;25.40;99.90;;;;;;4998215;28;20165;-90
2022/08/16 07:47:55;;;;;;;6.20;5.60;;;25.50;99.90;;;;;;4997366;28;20178;-83
2022/08/16 07:50:21;;;;;;;7.78;5.57;;;25.50;99.90;;;;;;4994700;28;20320;-83
2022/08/16 07:52:47;;;;;;;7.13;4.93;;;25.80;99.90;;;;;;5006938;28;20220;-84
2022/08/16 07:55:15;;;;;;;12.60;6.22;;;25.90;99.90;;;;;;4995152;28;20173;-85
2022/08/16 07:57:42;;;;;;;6.80;5.80;;;26.10;99.90;;;;;;4995037;28;20614;-83
2022/08/16 08:00:08;;;;;;;17.33;5.95;;;26.30;99.90;;;;;;4994915;28;20181;-83
2022/08/16 08:02:35;;;;;;;14.80;6.07;;;26.30;99.90;;;;;;4995317;28;20589;-84
2022/08/16 08:05:01;;;;;;;5.85;5.00;;;26.20;99.90;;;;;;4995021;28;20170;-84
2022/08/16 08:09:59;;;;;;;14.18;5.10;;;26.40;99.90;;;;;;4976658;28;20245;-86
2022/08/16 08:12:24;;;;;;;10.35;4.45;;;26.50;99.90;;;;;;4994548;28;20193;-83
2022/08/16 08:14:50;;;;;;;25.30;5.65;;;26.60;99.90;;;;;;4993547;28;20485;-83
2022/08/16 08:17:16;;;;;;;20.35;4.43;;;26.50;99.90;;;;;;4994758;28;20231;-83
2022/08/16 08:19:44;;;;;;;13.38;4.25;;;26.60;99.90;;;;;;4995331;28;20200;-84
2022/08/16 08:22:10;;;;;;;12.70;3.53;;;26.60;99.90;;;;;;4992453;28;20553;-84
2022/08/16 08:24:37;;;;;;;13.70;4.53;;;26.80;99.90;;;;;;4991999;28;20169;-83
2022/08/16 08:27:04;;;;;;;13.65;4.65;;;27.00;99.90;;;;;;4992713;28;20545;-84
2022/08/16 08:29:31;;;;;;;13.77;4.15;;;27.10;99.90;;;;;;4993237;28;20303;-84
2022/08/16 08:31:57;;;;;;;10.35;4.40;;;27.30;99.90;;;;;;4994038;28;20195;-85
2022/08/16 08:34:23;;;;;;;10.18;3.95;;;27.30;99.90;;;;;;4993408;28;20213;-82
2022/08/16 08:36:49;;;;;;;13.07;3.58;;;27.40;99.90;;;;;;4991829;28;20555;-81
2022/08/16 08:39:15;;;;;;;9.73;4.10;;;27.50;99.90;;;;;;4992643;28;20176;-81
2022/08/16 08:41:43;;;;;;;7.65;4.03;;;27.80;99.90;;;;;;4994233;28;20185;-81
2022/08/16 08:44:10;;;;;;;7.30;4.32;;;27.80;99.90;;;;;;4994435;28;20165;-81
2022/08/16 08:46:36;;;;;;;18.85;3.55;;;28.10;99.90;;;;;;4993183;28;20176;-81
2022/08/16 08:49:02;;;;;;;10.40;4.10;;;27.90;99.90;;;;;;4992694;28;20176;-81
2022/08/16 08:51:28;;;;;;;4.10;3.38;;;28.00;99.90;;;;;;4994229;28;20189;-81
2022/08/16 08:53:54;;;;;;;8.50;3.85;;;28.00;99.90;;;;;;4994687;28;20585;-82
2022/08/16 08:56:19;;;;;;;10.85;3.95;;;28.20;99.90;;;;;;4993083;28;20659;-81
2022/08/16 08:58:45;;;;;;;6.18;3.78;;;28.30;99.90;;;;;;4993273;28;20209;-82
2022/08/16 09:01:11;;;;;;;9.70;3.97;;;28.30;99.90;;;;;;4992645;28;20189;-82
2022/08/16 09:03:37;;;;;;;6.18;3.72;;;28.50;99.90;;;;;;4993186;28;20177;-82
2022/08/16 09:06:07;;;;;;;7.07;4.30;;;28.60;99.90;;;;;;4993435;28;20176;-81
2022/08/16 09:08:33;;;;;;;4.60;3.45;;;28.90;99.90;;;;;;4993261;28;20169;-81
2022/08/16 09:10:59;;;;;;;7.97;3.55;;;28.70;99.90;;;;;;4998472;28;20572;-82
2022/08/16 09:13:25;;;;;;;4.15;3.33;;;28.60;99.90;;;;;;5010561;28;20193;-80
2022/08/16 09:15:52;;;;;;;4.05;3.72;;;28.70;99.90;;;;;;5013676;28;20177;-82
2022/08/16 09:18:19;;;;;;;14.25;3.58;;;28.90;99.90;;;;;;4992967;28;20169;-82
2022/08/16 09:20:45;;;;;;;14.10;3.75;;;28.80;99.90;;;;;;4992743;28;20221;-81
2022/08/16 09:23:12;;;;;;;10.45;4.00;;;29.00;99.90;;;;;;4998646;28;20180;-82
2022/08/16 09:25:39;;;;;;;11.23;3.60;;;29.30;99.90;;;;;;4996936;28;20249;-82
2022/08/16 09:28:05;;;;;;;4.10;3.40;;;28.90;99.90;;;;;;4994028;28;20181;-81
2022/08/16 09:30:34;;;;;;;7.05;3.10;;;28.90;99.90;;;;;;4997596;28;20248;-81
2022/08/16 09:33:01;;;;;;;4.25;3.15;;;28.80;99.90;;;;;;4997018;28;20205;-81
2022/08/16 09:35:27;;;;;;;7.70;3.70;;;28.60;99.90;;;;;;5002398;28;20158;-82
2022/08/16 09:37:53;;;;;;;6.80;3.47;;;28.70;99.90;;;;;;5016207;28;20166;-84
2022/08/16 09:40:18;;;;;;;4.55;3.67;;;28.90;99.90;;;;;;5015874;28;20177;-83
2022/08/16 09:42:44;;;;;;;7.57;3.22;;;29.00;99.90;;;;;;5008438;28;20173;-83
2022/08/16 09:45:10;;;;;;;4.70;3.70;;;29.10;99.90;;;;;;5004839;28;20187;-83
2022/08/16 09:47:39;;;;;;;4.65;3.22;;;29.10;99.90;;;;;;5016588;28;20169;-84
2022/08/16 09:50:13;;;;;;;6.68;3.40;;;29.20;99.90;;;;;;5016678;28;20250;-83
2022/08/16 09:52:39;;;;;;;4.63;3.88;;;29.30;99.90;;;;;;5016245;28;20230;-82
2022/08/16 09:55:08;;;;;;;17.85;3.60;;;29.20;99.90;;;;;;4999885;28;20638;-82
2022/08/16 09:57:35;;;;;;;3.78;3.28;;;29.20;99.90;;;;;;4994225;28;20181;-83
2022/08/16 10:00:01;;;;;;;7.95;3.40;;;29.10;99.90;;;;;;4994474;28;20165;-82
2022/08/16 10:02:28;;;;;;;11.95;3.53;;;29.00;99.90;;;;;;4995464;28;20188;-83
2022/08/16 10:04:56;;;;;;;8.50;3.55;;;28.80;99.90;;;;;;4995150;28;20634;-86
2022/08/16 10:07:23;;;;;;;7.15;3.67;;;28.80;99.90;;;;;;4993489;28;20169;-83
2022/08/16 10:09:49;;;;;;;6.85;3.60;;;28.60;99.90;;;;;;4995084;28;20678;-83
2022/08/16 10:14:59;;;;;;;9.07;3.45;;;28.80;99.90;;;;;;4993860;28;20649;-83
2022/08/16 10:17:24;;;;;;;7.38;3.60;;;28.90;99.90;;;;;;4992059;28;20169;-83
2022/08/16 10:19:54;;;;;;;9.05;3.30;;;29.00;99.90;;;;;;4992187;28;20176;-83
2022/08/16 10:22:19;;;;;;;4.47;4.05;;;28.80;99.90;;;;;;4992462;28;20192;-83
2022/08/16 10:24:45;;;;;;;4.18;3.42;;;28.60;99.90;;;;;;4994193;28;20177;-84
2022/08/16 10:27:11;;;;;;;8.45;3.72;;;28.40;99.90;;;;;;4996024;28;20193;-84
2022/08/16 10:29:37;;;;;;;6.53;3.67;;;28.50;99.90;;;;;;4997428;28;20243;-86
2022/08/16 10:32:03;;;;;;;4.22;3.92;;;28.60;99.90;;;;;;4995937;28;20211;-84
2022/08/16 10:34:29;;;;;;;4.03;3.67;;;28.70;99.90;;;;;;4998906;28;20215;-89
2022/08/16 10:36:55;;;;;;;5.45;3.92;;;28.60;99.90;;;;;;4996257;28;20272;-85
2022/08/16 10:39:21;;;;;;;7.03;3.72;;;28.80;99.90;;;;;;4994127;28;20224;-85
2022/08/16 10:41:47;;;;;;;14.70;3.42;;;29.00;99.90;;;;;;4995866;28;20676;-84
2022/08/16 10:44:14;;;;;;;8.35;3.92;;;29.20;99.90;;;;;;4994099;28;20254;-93
2022/08/16 10:46:41;;;;;;;7.97;3.20;;;29.30;99.90;;;;;;4992908;28;20208;-86
2022/08/16 10:51:37;;;;;;;5.85;4.03;;;29.60;99.90;;;;;;5203390;23;20239;-88
2022/08/16 10:54:04;;;;;;;5.45;4.00;;;29.70;99.90;;;;;;5114880;23;20235;-84
2022/08/16 10:56:32;;;;;;;3.85;3.42;;;29.90;99.90;;;;;;5043299;28;20274;-87
2022/08/16 10:58:58;;;;;;;7.25;3.70;;;30.20;99.90;;;;;;5213774;23;21617;-86
2022/08/16 11:04:02;;;;;;;5.05;3.53;;;30.30;99.90;;;;;;5195493;22;20206;-86
2022/08/16 11:06:29;;;;;;;4.65;3.45;;;30.20;99.90;;;;;;5344718;22;20186;-85
2022/08/16 11:08:55;;;;;;;8.93;4.00;;;30.30;99.90;;;;;;5065836;28;20234;-85
2022/08/16 11:11:22;;;;;;;5.40;4.53;;;29.90;99.90;;;;;;5052090;28;20175;-93
2022/08/16 11:13:48;;;;;;;12.82;4.22;;;29.70;99.90;;;;;;5154676;22;20313;-83
2022/08/16 11:16:14;;;;;;;7.10;3.95;;;29.30;99.90;;;;;;5279175;22;20225;-84
2022/08/16 11:21:15;;;;;;;8.50;4.18;;;29.50;99.90;;;;;;5053433;22;20227;-85
2022/08/16 11:23:41;;;;;;;11.90;4.38;;;29.50;99.90;;;;;;5035308;28;20160;-90
2022/08/16 11:26:07;;;;;;;20.92;5.30;;;29.50;99.90;;;;;;5034644;28;20182;-84
2022/08/16 11:28:34;;;;;;;5.25;4.72;;;29.20;99.90;;;;;;5034829;28;20579;-84
2022/08/16 11:31:00;;;;;;;16.45;4.72;;;29.30;99.90;;;;;;5035611;28;20187;-84
2022/08/16 11:33:26;;;;;;;16.13;4.95;;;29.60;99.90;;;;;;5043100;28;20333;-85
2022/08/16 11:35:51;;;;;;;8.60;3.88;;;29.90;99.90;;;;;;5052900;28;20152;-85
2022/08/16 11:38:20;;;;;;;5.35;4.90;;;30.30;99.90;;;;;;5058257;28;20187;-85
2022/08/16 11:40:50;;;;;;;8.23;4.57;;;30.70;99.90;;;;;;5025398;28;20230;-84
2022/08/16 11:43:20;;;;;;;7.10;4.35;;;30.70;99.90;;;;;;5037693;28;20174;-85
2022/08/16 11:45:47;;;;;;;17.27;4.70;;;30.70;99.90;;;;;;5036238;28;20164;-85
2022/08/16 11:48:13;;;;;;;5.43;4.90;;;30.30;99.90;;;;;;5040331;28;20171;-84
2022/08/16 11:50:43;;;;;;;4.55;3.97;;;30.20;99.90;;;;;;5044709;28;20196;-85
2022/08/16 11:56:16;;;;;;;14.73;4.60;;;29.50;99.90;;;;;;5048881;28;20217;-86
2022/08/16 11:58:42;;;;;;;3.97;3.63;;;29.80;99.90;;;;;;5035382;28;20168;-85
2022/08/16 12:01:08;;;;;;;16.17;4.55;;;30.00;99.90;;;;;;5034044;28;20286;-86
2022/08/16 12:03:34;;;;;;;5.57;4.10;;;30.10;99.90;;;;;;5033907;28;20650;-86
2022/08/16 12:06:06;;;;;;;10.05;4.32;;;30.00;99.90;;;;;;5033905;28;20167;-85
2022/08/16 12:08:32;;;;;;;15.90;3.88;;;29.80;99.90;;;;;;5033703;28;20641;-85
2022/08/16 12:10:58;;;;;;;10.60;4.05;;;29.80;99.90;;;;;;5035288;28;20256;-85
2022/08/16 12:13:24;;;;;;;4.38;3.65;;;29.60;99.90;;;;;;5033978;28;20662;-89
2022/08/16 12:15:50;;;;;;;8.73;4.13;;;29.80;99.90;;;;;;5034019;28;20168;-84
2022/08/16 12:18:16;;;;;;;14.80;4.68;;;29.90;99.90;;;;;;5035240;28;20604;-86
2022/08/16 12:20:43;;;;;;;14.30;4.00;;;29.90;99.90;;;;;;5033236;28;20205;-83
2022/08/16 12:23:10;;;;;;;4.70;3.58;;;29.90;99.90;;;;;;5033928;28;20245;-83
2022/08/16 12:25:36;;;;;;;6.28;2.83;;;29.90;99.90;;;;;;5033539;28;20181;-84
2022/08/16 12:28:05;;;;;;;4.32;3.65;;;29.90;99.90;;;;;;5034081;28;20521;-84
2022/08/16 12:30:34;;;;;;;22.60;3.80;;;30.00;99.90;;;;;;5033102;28;20328;-83
2022/08/16 12:33:02;;;;;;;12.45;3.80;;;30.10;99.90;;;;;;5033394;28;20571;-84
2022/08/16 12:35:30;;;;;;;4.10;3.20;;;30.30;99.90;;;;;;5033312;28;20187;-85
2022/08/16 12:37:58;;;;;;;4.03;3.08;;;30.40;99.90;;;;;;5033383;28;20179;-83
2022/08/16 12:40:27;;;;;;;3.95;3.53;;;30.40;99.90;;;;;;5033036;28;20222;-85
2022/08/16 12:42:58;;;;;;;4.78;3.17;;;30.50;99.40;;;;;;5033906;28;20185;-84
2022/08/16 12:45:34;;;;;;;9.40;3.55;;;30.60;99.80;;;;;;5026175;28;20546;-82
2022/08/16 12:50:46;;;;;;;8.63;3.45;;;30.70;99.30;;;;;;5040992;28;20198;-83
2022/08/16 12:53:33;;;;;;;7.28;3.58;;;30.70;99.60;;;;;;5050278;28;20218;-82
2022/08/16 12:55:59;;;;;;;6.25;3.08;;;31.00;99.30;;;;;;5030240;28;20214;-82
2022/08/16 12:58:26;;;;;;;7.55;3.17;;;31.00;99.10;;;;;;5040655;28;20159;-83